sensor_id;sensor_type;location;lat;lon;timestamp;P1;durP1;ratioP1;P2;durP2;ratioP2
39698;SDS011;25372;50.582;12.250;2024-02-28T00:05:01;28.60;;;8.95;;
39698;SDS011;25372;50.582;12.250;2024-02-28T00:15:23;31.77;;;11.13;;
39698;SDS011;25372;50.582;12.250;2024-02-28T00:25:45;24.63;;;8.43;;
39698;SDS011;25372;50.582;12.250;2024-02-28T00:36:08;25.63;;;10.32;;
39698;SDS011;25372;50.582;12.250;2024-02-28T00:46:29;25.90;;;9.38;;
39698;SDS011;25372;50.582;12.250;2024-02-28T00:56:52;17.15;;;7.53;;
39698;SDS011;25372;50.582;12.250;2024-02-28T01:07:13;17.77;;;7.93;;
39698;SDS011;25372;50.582;12.250;2024-02-28T01:17:35;18.65;;;7.05;;
39698;SDS011;25372;50.582;12.250;2024-02-28T01:27:56;15.50;;;7.70;;
39698;SDS011;25372;50.582;12.250;2024-02-28T01:38:19;20.55;;;6.78;;
39698;SDS011;25372;50.582;12.250;2024-02-28T01:48:40;18.80;;;7.38;;
39698;SDS011;25372;50.582;12.250;2024-02-28T01:59:03;22.60;;;9.48;;
39698;SDS011;25372;50.582;12.250;2024-02-28T02:09:25;18.42;;;7.82;;
39698;SDS011;25372;50.582;12.250;2024-02-28T02:19:47;20.90;;;8.23;;
39698;SDS011;25372;50.582;12.250;2024-02-28T02:30:11;27.48;;;7.97;;
39698;SDS011;25372;50.582;12.250;2024-02-28T02:40:32;31.27;;;7.00;;
39698;SDS011;25372;50.582;12.250;2024-02-28T02:50:55;23.48;;;8.55;;
39698;SDS011;25372;50.582;12.250;2024-02-28T03:01:15;18.02;;;7.07;;
39698;SDS011;25372;50.582;12.250;2024-02-28T03:11:38;20.05;;;8.68;;
39698;SDS011;25372;50.582;12.250;2024-02-28T03:21:59;19.00;;;8.38;;
39698;SDS011;25372;50.582;12.250;2024-02-28T03:32:22;24.33;;;7.97;;
39698;SDS011;25372;50.582;12.250;2024-02-28T03:42:43;23.92;;;9.13;;
39698;SDS011;25372;50.582;12.250;2024-02-28T03:53:06;18.48;;;7.95;;
39698;SDS011;25372;50.582;12.250;2024-02-28T04:03:27;17.17;;;6.75;;
39698;SDS011;25372;50.582;12.250;2024-02-28T04:13:50;15.07;;;5.70;;
39698;SDS011;25372;50.582;12.250;2024-02-28T04:24:11;18.80;;;6.57;;
39698;SDS011;25372;50.582;12.250;2024-02-28T04:34:33;20.23;;;6.15;;
39698;SDS011;25372;50.582;12.250;2024-02-28T04:44:56;14.93;;;5.10;;
39698;SDS011;25372;50.582;12.250;2024-02-28T04:55:19;18.08;;;6.32;;
39698;SDS011;25372;50.582;12.250;2024-02-28T05:05:40;12.35;;;5.20;;
39698;SDS011;25372;50.582;12.250;2024-02-28T05:16:02;28.55;;;7.10;;
39698;SDS011;25372;50.582;12.250;2024-02-28T05:26:24;14.18;;;5.28;;
39698;SDS011;25372;50.582;12.250;2024-02-28T05:36:47;27.65;;;8.77;;
39698;SDS011;25372;50.582;12.250;2024-02-28T05:47:08;13.30;;;5.85;;
39698;SDS011;25372;50.582;12.250;2024-02-28T05:57:30;19.02;;;5.43;;
39698;SDS011;25372;50.582;12.250;2024-02-28T06:07:51;12.02;;;5.10;;
39698;SDS011;25372;50.582;12.250;2024-02-28T06:18:14;14.07;;;6.20;;
39698;SDS011;25372;50.582;12.250;2024-02-28T06:28:35;18.88;;;7.53;;
39698;SDS011;25372;50.582;12.250;2024-02-28T06:38:59;15.57;;;5.20;;
39698;SDS011;25372;50.582;12.250;2024-02-28T06:49:20;16.88;;;7.50;;
39698;SDS011;25372;50.582;12.250;2024-02-28T06:59:43;15.00;;;4.68;;
39698;SDS011;25372;50.582;12.250;2024-02-28T07:10:05;16.35;;;6.45;;
39698;SDS011;25372;50.582;12.250;2024-02-28T07:20:28;21.02;;;6.47;;
39698;SDS011;25372;50.582;12.250;2024-02-28T07:30:48;25.10;;;5.80;;
39698;SDS011;25372;50.582;12.250;2024-02-28T07:41:11;12.05;;;4.55;;
39698;SDS011;25372;50.582;12.250;2024-02-28T07:51:32;14.80;;;5.55;;
39698;SDS011;25372;50.582;12.250;2024-02-28T08:01:54;15.35;;;5.15;;
39698;SDS011;25372;50.582;12.250;2024-02-28T08:12:16;11.93;;;5.25;;
39698;SDS011;25372;50.582;12.250;2024-02-28T08:22:38;19.42;;;5.00;;
39698;SDS011;25372;50.582;12.250;2024-02-28T08:32:59;20.02;;;7.28;;
39698;SDS011;25372;50.582;12.250;2024-02-28T08:43:22;12.80;;;5.63;;
39698;SDS011;25372;50.582;12.250;2024-02-28T08:53:42;15.98;;;4.50;;
39698;SDS011;25372;50.582;12.250;2024-02-28T09:04:05;29.42;;;7.55;;
39698;SDS011;25372;50.582;12.250;2024-02-28T09:14:26;22.88;;;6.25;;
39698;SDS011;25372;50.582;12.250;2024-02-28T09:24:48;18.88;;;8.20;;
39698;SDS011;25372;50.582;12.250;2024-02-28T09:35:09;30.80;;;7.38;;
39698;SDS011;25372;50.582;12.250;2024-02-28T09:45:32;36.03;;;9.50;;
39698;SDS011;25372;50.582;12.250;2024-02-28T09:55:55;41.45;;;10.15;;
39698;SDS011;25372;50.582;12.250;2024-02-28T10:06:17;29.15;;;10.20;;
39698;SDS011;25372;50.582;12.250;2024-02-28T10:16:39;33.03;;;8.95;;
39698;SDS011;25372;50.582;12.250;2024-02-28T10:27:01;26.63;;;9.05;;
39698;SDS011;25372;50.582;12.250;2024-02-28T10:37:23;35.65;;;10.73;;
39698;SDS011;25372;50.582;12.250;2024-02-28T10:47:46;27.92;;;9.27;;
39698;SDS011;25372;50.582;12.250;2024-02-28T10:58:10;30.27;;;8.50;;
39698;SDS011;25372;50.582;12.250;2024-02-28T11:08:33;24.20;;;7.68;;
39698;SDS011;25372;50.582;12.250;2024-02-28T11:18:55;11.55;;;6.22;;
39698;SDS011;25372;50.582;12.250;2024-02-28T11:29:18;23.42;;;7.65;;
39698;SDS011;25372;50.582;12.250;2024-02-28T11:39:45;18.02;;;6.38;;
39698;SDS011;25372;50.582;12.250;2024-02-28T11:50:09;16.95;;;6.25;;
39698;SDS011;25372;50.582;12.250;2024-02-28T12:00:30;22.27;;;7.63;;
39698;SDS011;25372;50.582;12.250;2024-02-28T12:10:53;25.70;;;8.48;;
39698;SDS011;25372;50.582;12.250;2024-02-28T12:21:14;22.80;;;8.23;;
39698;SDS011;25372;50.582;12.250;2024-02-28T12:31:37;14.93;;;8.43;;
39698;SDS011;25372;50.582;12.250;2024-02-28T12:41:58;26.25;;;10.40;;
39698;SDS011;25372;50.582;12.250;2024-02-28T12:52:20;25.55;;;6.78;;
39698;SDS011;25372;50.582;12.250;2024-02-28T13:02:41;22.95;;;8.50;;
39698;SDS011;25372;50.582;12.250;2024-02-28T13:13:04;25.35;;;8.75;;
39698;SDS011;25372;50.582;12.250;2024-02-28T13:23:25;19.55;;;7.13;;
39698;SDS011;25372;50.582;12.250;2024-02-28T13:33:48;21.98;;;11.32;;
39698;SDS011;25372;50.582;12.250;2024-02-28T13:44:10;19.80;;;9.40;;
39698;SDS011;25372;50.582;12.250;2024-02-28T13:54:32;26.50;;;10.00;;
39698;SDS011;25372;50.582;12.250;2024-02-28T14:04:54;20.65;;;9.35;;
39698;SDS011;25372;50.582;12.250;2024-02-28T14:15:17;21.40;;;8.90;;
39698;SDS011;25372;50.582;12.250;2024-02-28T14:25:38;25.10;;;10.95;;
39698;SDS011;25372;50.582;12.250;2024-02-28T14:36:01;23.63;;;9.07;;
39698;SDS011;25372;50.582;12.250;2024-02-28T14:46:23;22.27;;;8.13;;
39698;SDS011;25372;50.582;12.250;2024-02-28T14:56:45;18.23;;;8.43;;
39698;SDS011;25372;50.582;12.250;2024-02-28T15:07:07;21.42;;;8.55;;
39698;SDS011;25372;50.582;12.250;2024-02-28T15:17:29;22.45;;;8.57;;
39698;SDS011;25372;50.582;12.250;2024-02-28T15:27:51;28.13;;;11.77;;
39698;SDS011;25372;50.582;12.250;2024-02-28T15:38:13;23.98;;;9.95;;
39698;SDS011;25372;50.582;12.250;2024-02-28T15:48:34;26.50;;;10.15;;
39698;SDS011;25372;50.582;12.250;2024-02-28T15:58:57;26.08;;;10.80;;
39698;SDS011;25372;50.582;12.250;2024-02-28T16:09:18;22.25;;;8.98;;
39698;SDS011;25372;50.582;12.250;2024-02-28T16:19:41;26.55;;;10.00;;
39698;SDS011;25372;50.582;12.250;2024-02-28T16:30:02;26.17;;;10.05;;
39698;SDS011;25372;50.582;12.250;2024-02-28T16:40:26;25.00;;;10.00;;
39698;SDS011;25372;50.582;12.250;2024-02-28T16:50:56;26.80;;;11.38;;
39698;SDS011;25372;50.582;12.250;2024-02-28T17:01:18;20.40;;;10.35;;
39698;SDS011;25372;50.582;12.250;2024-02-28T17:11:40;30.23;;;12.00;;
39698;SDS011;25372;50.582;12.250;2024-02-28T17:22:02;23.45;;;9.55;;
39698;SDS011;25372;50.582;12.250;2024-02-28T17:32:24;23.83;;;10.88;;
39698;SDS011;25372;50.582;12.250;2024-02-28T17:42:47;32.63;;;11.30;;
39698;SDS011;25372;50.582;12.250;2024-02-28T17:53:08;16.95;;;9.07;;
39698;SDS011;25372;50.582;12.250;2024-02-28T18:03:31;29.33;;;10.70;;
39698;SDS011;25372;50.582;12.250;2024-02-28T18:13:52;17.10;;;8.03;;
39698;SDS011;25372;50.582;12.250;2024-02-28T18:24:14;25.90;;;9.95;;
39698;SDS011;25372;50.582;12.250;2024-02-28T18:34:35;24.10;;;11.98;;
39698;SDS011;25372;50.582;12.250;2024-02-28T18:44:58;26.98;;;13.57;;
39698;SDS011;25372;50.582;12.250;2024-02-28T18:55:19;26.25;;;10.40;;
39698;SDS011;25372;50.582;12.250;2024-02-28T19:05:45;24.35;;;10.15;;
39698;SDS011;25372;50.582;12.250;2024-02-28T19:16:06;31.80;;;11.27;;
39698;SDS011;25372;50.582;12.250;2024-02-28T19:26:29;30.23;;;10.23;;
39698;SDS011;25372;50.582;12.250;2024-02-28T19:36:53;34.65;;;10.73;;
39698;SDS011;25372;50.582;12.250;2024-02-28T19:47:15;23.08;;;9.77;;
39698;SDS011;25372;50.582;12.250;2024-02-28T19:57:36;18.77;;;7.97;;
39698;SDS011;25372;50.582;12.250;2024-02-28T20:08:00;25.63;;;10.85;;
39698;SDS011;25372;50.582;12.250;2024-02-28T20:18:21;16.48;;;6.60;;
39698;SDS011;25372;50.582;12.250;2024-02-28T20:28:47;23.15;;;7.60;;
39698;SDS011;25372;50.582;12.250;2024-02-28T20:39:08;44.33;;;11.05;;
39698;SDS011;25372;50.582;12.250;2024-02-28T20:49:31;28.85;;;12.02;;
39698;SDS011;25372;50.582;12.250;2024-02-28T20:59:52;32.90;;;11.63;;
39698;SDS011;25372;50.582;12.250;2024-02-28T21:10:14;27.00;;;10.60;;
39698;SDS011;25372;50.582;12.250;2024-02-28T21:20:36;17.00;;;7.53;;
39698;SDS011;25372;50.582;12.250;2024-02-28T21:30:58;23.42;;;10.80;;
39698;SDS011;25372;50.582;12.250;2024-02-28T21:41:19;32.08;;;13.88;;
39698;SDS011;25372;50.582;12.250;2024-02-28T21:51:42;30.08;;;11.60;;
39698;SDS011;25372;50.582;12.250;2024-02-28T22:02:03;41.43;;;11.63;;
39698;SDS011;25372;50.582;12.250;2024-02-28T22:12:26;24.40;;;9.88;;
39698;SDS011;25372;50.582;12.250;2024-02-28T22:22:47;28.93;;;8.07;;
39698;SDS011;25372;50.582;12.250;2024-02-28T22:33:09;22.85;;;9.50;;
39698;SDS011;25372;50.582;12.250;2024-02-28T22:43:30;32.67;;;12.05;;
39698;SDS011;25372;50.582;12.250;2024-02-28T22:53:52;32.20;;;9.07;;
39698;SDS011;25372;50.582;12.250;2024-02-28T23:04:13;16.63;;;7.37;;
39698;SDS011;25372;50.582;12.250;2024-02-28T23:14:37;37.75;;;9.02;;
39698;SDS011;25372;50.582;12.250;2024-02-28T23:24:58;23.03;;;8.53;;
39698;SDS011;25372;50.582;12.250;2024-02-28T23:35:20;25.48;;;7.90;;
39698;SDS011;25372;50.582;12.250;2024-02-28T23:45:41;30.13;;;9.15;;
39698;SDS011;25372;50.582;12.250;2024-02-28T23:56:05;14.93;;;8.68;;
